createdAt,value
2017-11-28T00:00:09.687Z,96923.08
2017-11-28T00:01:14.487Z,96925.92
2017-11-28T00:02:19.109Z,96918.08
2017-11-28T00:03:23.854Z,96929.30
2017-11-28T00:04:29.014Z,96910.50
2017-11-28T00:05:33.944Z,96911.52
2017-11-28T00:06:38.649Z,96909.08
2017-11-28T00:07:43.367Z,96912.22
2017-11-28T00:08:48.025Z,96913.43
2017-11-28T00:09:52.763Z,96923.21
2017-11-28T00:10:57.949Z,96902.48
2017-11-28T00:12:02.778Z,96902.02
2017-11-28T00:13:07.477Z,96911.74
2017-11-28T00:14:12.218Z,96905.79
2017-11-28T00:15:17.039Z,96917.06
2017-11-28T00:16:21.725Z,96929.77
2017-11-28T00:17:26.827Z,96916.11
2017-11-28T00:18:31.501Z,96925.19
2017-11-28T00:19:36.233Z,96920.17
2017-11-28T00:20:41.006Z,96921.31
2017-11-28T00:21:45.728Z,96926.00
2017-11-28T00:22:50.503Z,96914.05
2017-11-28T00:23:55.606Z,96909.48
2017-11-28T00:25:00.338Z,96919.99
2017-11-28T00:26:05.066Z,96925.73
2017-11-28T00:27:09.784Z,96926.80
2017-11-28T00:28:14.544Z,96924.28
2017-11-28T00:29:19.226Z,96913.56
2017-11-28T00:30:24.434Z,96914.69
2017-11-28T00:31:29.166Z,96928.78
2017-11-28T00:32:33.904Z,96927.21
2017-11-28T00:33:38.645Z,96921.47
2017-11-28T00:34:43.419Z,96925.16
2017-11-28T00:35:48.156Z,96926.80
2017-11-28T00:36:53.340Z,96922.79
2017-11-28T00:37:58.059Z,96926.60
2017-11-28T00:39:02.805Z,96933.47
2017-11-28T00:40:07.546Z,96932.78
2017-11-28T00:41:12.218Z,96928.03
2017-11-28T00:42:16.919Z,96929.27
2017-11-28T00:43:22.051Z,96921.88
2017-11-28T00:44:26.775Z,96916.98
2017-11-28T00:45:31.453Z,96925.95
2017-11-28T00:46:36.324Z,96930.45
2017-11-28T00:47:41.130Z,96931.73
2017-11-28T00:48:45.821Z,96931.44
2017-11-28T00:49:50.934Z,96931.48
2017-11-28T00:50:55.564Z,96923.65
2017-11-28T00:52:00.163Z,96928.34
2017-11-28T00:53:04.809Z,96930.50
2017-11-28T00:54:09.450Z,96938.28
2017-11-28T00:55:14.089Z,96932.91
2017-11-28T00:56:19.204Z,96934.27
2017-11-28T00:57:23.812Z,96934.56
2017-11-28T00:58:28.460Z,96933.28
2017-11-28T00:59:33.094Z,96944.63
2017-11-28T01:00:37.720Z,96937.78
2017-11-28T01:01:42.603Z,96930.87
2017-11-28T01:02:47.558Z,96938.63
2017-11-28T01:03:52.026Z,96932.37
2017-11-28T01:04:56.509Z,96931.23
2017-11-28T01:06:01.202Z,96935.70
2017-11-28T01:07:05.822Z,96930.31
2017-11-28T01:08:10.441Z,96934.30
2017-11-28T01:09:15.571Z,96933.02
2017-11-28T01:10:20.204Z,96931.41
2017-11-28T01:11:24.929Z,96928.48
2017-11-28T01:12:29.657Z,96928.52
2017-11-28T01:13:34.341Z,96927.91
2017-11-28T01:14:38.956Z,96928.30
2017-11-28T01:15:43.988Z,96923.19
2017-11-28T01:16:48.647Z,96924.06
2017-11-28T01:17:53.313Z,96923.63
2017-11-28T01:18:57.958Z,96925.92
2017-11-28T01:20:02.593Z,96926.11
2017-11-28T01:21:07.191Z,96930.42
2017-11-28T01:22:12.294Z,96927.98
2017-11-28T01:23:16.902Z,96922.75
2017-11-28T01:24:21.741Z,96922.20
2017-11-28T01:25:26.393Z,96928.78
2017-11-28T01:26:31.065Z,96927.88
2017-11-28T01:27:35.718Z,96928.08
2017-11-28T01:28:40.772Z,96928.92
2017-11-28T01:29:45.409Z,96925.86
2017-11-28T01:30:50.051Z,96927.98
2017-11-28T01:31:54.708Z,96926.80
2017-11-28T01:32:59.348Z,96928.16
2017-11-28T01:34:04.029Z,96918.62
2017-11-28T01:35:09.141Z,96922.23
2017-11-28T01:36:13.809Z,96909.98
2017-11-28T01:37:18.488Z,96921.14
2017-11-28T01:38:23.208Z,96926.37
2017-11-28T01:39:27.863Z,96920.34
2017-11-28T01:40:32.483Z,96921.58
2017-11-28T01:41:37.565Z,96922.20
2017-11-28T01:42:42.266Z,96915.55
2017-11-28T01:43:46.869Z,96922.20
2017-11-28T01:44:51.523Z,96908.63
2017-11-28T01:45:56.134Z,96917.70
2017-11-28T01:47:00.850Z,96912.88
2017-11-28T01:48:05.922Z,96910.68
2017-11-28T01:49:10.612Z,96905.75
2017-11-28T01:50:15.318Z,96910.05
2017-11-28T01:51:20.042Z,96917.19
2017-11-28T01:52:24.748Z,96909.29
2017-11-28T01:53:29.474Z,96914.22
2017-11-28T01:54:34.570Z,96908.95
2017-11-28T01:55:39.233Z,96911.77
2017-11-28T01:56:43.937Z,96912.39
2017-11-28T01:57:48.668Z,96909.33
2017-11-28T01:58:53.888Z,96905.95
2017-11-28T01:59:58.646Z,96905.44
2017-11-28T02:01:03.732Z,96896.23
2017-11-28T02:02:08.453Z,96906.69
2017-11-28T02:03:13.130Z,96905.92
2017-11-28T02:04:17.841Z,96914.25
2017-11-28T02:05:22.524Z,96913.92
2017-11-28T02:06:27.197Z,96908.55
2017-11-28T02:07:32.529Z,96907.59
2017-11-28T02:08:37.317Z,96908.08
2017-11-28T02:09:42.067Z,96910.20
2017-11-28T02:10:46.770Z,96911.84
2017-11-28T02:11:51.473Z,96910.64
2017-11-28T02:12:56.077Z,96909.46
2017-11-28T02:14:01.068Z,96911.62
2017-11-28T02:15:05.710Z,96912.72
2017-11-28T02:16:10.510Z,96904.75
2017-11-28T02:17:15.377Z,96913.23
2017-11-28T02:18:20.209Z,96909.45
2017-11-28T02:19:24.866Z,96908.77
2017-11-28T02:20:30.746Z,96909.34
2017-11-28T02:21:35.747Z,96909.78
2017-11-28T02:22:40.487Z,96906.75
2017-11-28T02:23:45.248Z,96901.89
2017-11-28T02:24:51.629Z,96902.66
2017-11-28T02:25:56.348Z,96893.84
2017-11-28T02:27:01.305Z,96896.92
2017-11-28T02:28:06.096Z,96896.38
2017-11-28T02:29:10.752Z,96896.52
2017-11-28T02:30:15.465Z,96902.84
2017-11-28T02:31:20.148Z,96900.31
2017-11-28T02:32:24.793Z,96898.98
2017-11-28T02:33:30.309Z,96901.84
2017-11-28T02:34:35.065Z,96884.41
2017-11-28T02:35:39.681Z,96890.98
2017-11-28T02:36:44.358Z,96890.55
2017-11-28T02:37:48.989Z,96890.38
2017-11-28T02:38:53.759Z,96893.69
2017-11-28T02:39:58.806Z,96889.64
2017-11-28T02:41:07.707Z,96884.52
2017-11-28T02:42:12.388Z,96887.02
2017-11-28T02:43:17.074Z,96882.48
2017-11-28T02:44:21.732Z,96886.75
2017-11-28T02:45:26.244Z,96881.13
2017-11-28T02:46:31.273Z,96880.14
2017-11-28T02:47:35.791Z,96877.22
2017-11-28T02:48:40.495Z,96881.06
2017-11-28T02:49:45.130Z,96879.25
2017-11-28T02:50:49.621Z,96878.02
2017-11-28T02:51:54.099Z,96868.59
2017-11-28T02:52:59.313Z,96872.98
2017-11-28T02:54:04.081Z,96869.76
2017-11-28T02:55:08.758Z,96868.55
2017-11-28T02:56:13.487Z,96867.92
2017-11-28T02:57:18.336Z,96865.16
2017-11-28T02:58:23.000Z,96863.29
2017-11-28T02:59:28.003Z,96866.95
2017-11-28T03:00:32.750Z,96860.84
2017-11-28T03:01:37.456Z,96861.53
2017-11-28T03:02:42.188Z,96860.80
2017-11-28T03:03:46.905Z,96863.00
2017-11-28T03:04:51.597Z,96861.17
2017-11-28T03:05:56.708Z,96867.09
2017-11-28T03:07:01.459Z,96862.44
2017-11-28T03:08:06.286Z,96858.31
2017-11-28T03:09:11.266Z,96842.64
2017-11-28T03:10:15.993Z,96849.98
2017-11-28T03:11:20.617Z,96850.16
2017-11-28T03:12:25.746Z,96853.64
2017-11-28T03:13:30.418Z,96854.08
2017-11-28T03:14:35.107Z,96850.61
2017-11-28T03:15:39.849Z,96847.61
2017-11-28T03:16:44.541Z,96854.03
2017-11-28T03:17:49.237Z,96853.23
2017-11-28T03:18:53.961Z,96847.43
2017-11-28T03:19:58.669Z,96841.47
2017-11-28T03:21:03.347Z,96843.33
2017-11-28T03:22:08.143Z,96838.30
2017-11-28T03:23:12.821Z,96836.83
2017-11-28T03:24:17.657Z,96836.25
2017-11-28T03:25:22.820Z,96839.05
2017-11-28T03:26:27.513Z,96834.38
2017-11-28T03:27:32.238Z,96835.58
2017-11-28T03:28:36.780Z,96833.43
2017-11-28T03:29:41.362Z,96836.78
2017-11-28T03:30:45.965Z,96838.28
2017-11-28T03:31:50.897Z,96834.02
2017-11-28T03:32:55.621Z,96827.52
2017-11-28T03:34:01.750Z,96835.77
2017-11-28T03:35:06.531Z,96824.95
2017-11-28T03:36:11.236Z,96828.94
2017-11-28T03:37:15.865Z,96825.24
2017-11-28T03:38:21.029Z,96831.20
2017-11-28T03:39:25.683Z,96829.38
2017-11-28T03:40:30.368Z,96823.63
2017-11-28T03:41:35.061Z,96821.30
2017-11-28T03:42:39.737Z,96828.20
2017-11-28T03:43:44.484Z,96825.86
2017-11-28T03:44:49.570Z,96821.41
2017-11-28T03:45:54.343Z,96824.88
2017-11-28T03:46:59.258Z,96824.55
2017-11-28T03:48:04.043Z,96820.13
2017-11-28T03:49:08.671Z,96824.84
2017-11-28T03:50:13.400Z,96819.58
2017-11-28T03:51:18.417Z,96822.28
2017-11-28T03:52:23.076Z,96820.78
2017-11-28T03:53:27.854Z,96825.98
2017-11-28T03:54:32.526Z,96821.55
2017-11-28T03:55:37.241Z,96822.32
2017-11-28T03:56:41.875Z,96823.53
2017-11-28T03:57:46.980Z,96818.41
2017-11-28T03:58:51.887Z,96818.81
2017-11-28T03:59:56.609Z,96819.58
2017-11-28T04:01:01.255Z,96816.11
2017-11-28T04:02:05.968Z,96814.58
2017-11-28T04:03:11.209Z,96820.13
2017-11-28T04:04:16.271Z,96818.41
2017-11-28T04:05:20.928Z,96820.46
2017-11-28T04:06:25.592Z,96818.12
2017-11-28T04:07:30.254Z,96818.05
2017-11-28T04:08:34.884Z,96813.99
2017-11-28T04:09:39.534Z,96810.08
2017-11-28T04:10:44.466Z,96812.89
2017-11-28T04:11:49.101Z,96813.81
2017-11-28T04:12:53.620Z,96815.30
2017-11-28T04:13:58.516Z,96821.05
2017-11-28T04:15:03.062Z,96825.69
2017-11-28T04:16:07.713Z,96822.14
2017-11-28T04:17:12.935Z,96824.59
2017-11-28T04:18:17.553Z,96821.55
2017-11-28T04:19:22.194Z,96814.57
2017-11-28T04:20:26.879Z,96813.70
2017-11-28T04:21:31.557Z,96826.19
2017-11-28T04:22:36.197Z,96815.97
2017-11-28T04:23:41.329Z,96812.75
2017-11-28T04:24:45.977Z,96815.81
2017-11-28T04:25:50.642Z,96812.86
2017-11-28T04:26:55.296Z,96815.30
2017-11-28T04:27:59.933Z,96811.61
2017-11-28T04:29:04.618Z,96807.99
2017-11-28T04:30:09.742Z,96803.79
2017-11-28T04:31:14.393Z,96809.28
2017-11-28T04:32:19.093Z,96813.88
2017-11-28T04:33:23.733Z,96806.31
2017-11-28T04:34:28.406Z,96804.67
2017-11-28T04:35:33.189Z,96803.69
2017-11-28T04:36:38.333Z,96800.47
2017-11-28T04:37:42.971Z,96801.13
2017-11-28T04:38:47.578Z,96792.35
2017-11-28T04:39:52.295Z,96793.56
2017-11-28T04:40:56.950Z,96801.78
2017-11-28T04:42:01.657Z,96798.56
2017-11-28T04:43:06.649Z,96799.92
2017-11-28T04:44:11.334Z,96804.41
2017-11-28T04:45:15.961Z,96802.55
2017-11-28T04:46:20.625Z,96806.57
2017-11-28T04:47:25.282Z,96799.92
2017-11-28T04:48:29.921Z,96802.80
2017-11-28T04:49:34.981Z,96799.73
2017-11-28T04:50:40.252Z,96805.66
2017-11-28T04:51:45.005Z,96801.59
2017-11-28T04:52:49.728Z,96810.48
2017-11-28T04:53:54.503Z,96805.88
2017-11-28T04:54:59.697Z,96803.90
2017-11-28T04:56:04.319Z,96793.67
2017-11-28T04:57:09.004Z,96798.02
2017-11-28T04:58:13.728Z,96806.56
2017-11-28T04:59:18.412Z,96801.27
2017-11-28T05:00:23.081Z,96800.58
2017-11-28T05:01:28.151Z,96797.83
2017-11-28T05:02:32.808Z,96798.20
2017-11-28T05:03:37.510Z,96795.06
2017-11-28T05:04:42.224Z,96799.19
2017-11-28T05:05:46.923Z,96790.20
2017-11-28T05:06:51.631Z,96796.70
2017-11-28T05:07:56.722Z,96800.69
2017-11-28T05:09:01.472Z,96802.41
2017-11-28T05:10:06.172Z,96808.66
2017-11-28T05:11:10.924Z,96791.73
2017-11-28T05:12:15.614Z,96790.64
2017-11-28T05:13:20.305Z,96800.75
2017-11-28T05:14:25.422Z,96805.25
2017-11-28T05:15:30.157Z,96791.91
2017-11-28T05:16:34.809Z,96789.25
2017-11-28T05:17:39.550Z,96794.17
2017-11-28T05:18:44.228Z,96781.82
2017-11-28T05:19:48.870Z,96800.13
2017-11-28T05:20:53.864Z,96797.80
2017-11-28T05:21:58.531Z,96796.70
2017-11-28T05:23:03.261Z,96794.61
2017-11-28T05:24:08.066Z,96801.16
2017-11-28T05:25:12.739Z,96799.81
2017-11-28T05:26:17.454Z,96802.11
2017-11-28T05:27:22.600Z,96797.76
2017-11-28T05:28:27.290Z,96801.89
2017-11-28T05:29:31.983Z,96792.50
2017-11-28T05:30:36.758Z,96798.16
2017-11-28T05:31:41.547Z,96797.33
2017-11-28T05:32:46.239Z,96798.71
2017-11-28T05:33:50.918Z,96799.52
2017-11-28T05:34:55.611Z,96797.14
2017-11-28T05:36:00.293Z,96795.17
2017-11-28T05:37:05.002Z,96786.17
2017-11-28T05:38:09.738Z,96796.16
2017-11-28T05:39:14.955Z,96799.73
2017-11-28T05:40:19.692Z,96797.98
2017-11-28T05:41:24.450Z,96796.30
2017-11-28T05:42:29.945Z,96800.91
2017-11-28T05:43:34.750Z,96800.98
2017-11-28T05:44:39.532Z,96799.70
2017-11-28T05:45:46.722Z,96797.55
2017-11-28T05:46:51.432Z,96804.09
2017-11-28T05:47:56.753Z,96799.92
2017-11-28T05:49:01.591Z,96803.35
2017-11-28T05:50:06.344Z,96801.38
2017-11-28T05:51:11.153Z,96800.91
2017-11-28T05:52:16.369Z,96801.52
2017-11-28T05:53:21.136Z,96806.28
2017-11-28T05:54:25.952Z,96809.64
2017-11-28T05:55:30.588Z,96812.12
2017-11-28T05:56:35.224Z,96809.97
2017-11-28T05:57:39.889Z,96804.82
2017-11-28T05:58:44.907Z,96813.22
2017-11-28T05:59:49.644Z,96814.83
2017-11-28T06:00:54.489Z,96808.69
2017-11-28T06:01:59.302Z,96812.86
2017-11-28T06:03:04.138Z,96809.23
2017-11-28T06:04:08.987Z,96807.19
2017-11-28T06:05:14.093Z,96811.69
2017-11-28T06:06:18.954Z,96813.22
2017-11-28T06:07:23.757Z,96811.98
2017-11-28T06:08:28.574Z,96818.27
2017-11-28T06:09:33.386Z,96807.92
2017-11-28T06:10:38.059Z,96823.23
2017-11-28T06:11:43.236Z,96815.45
2017-11-28T06:12:47.896Z,96814.42
2017-11-28T06:13:52.604Z,96810.08
2017-11-28T06:14:57.231Z,96810.92
2017-11-28T06:16:01.956Z,96812.86
2017-11-28T06:17:07.810Z,96809.93
2017-11-28T06:18:13.028Z,96810.52
2017-11-28T06:19:17.811Z,96810.08
2017-11-28T06:20:22.644Z,96818.67
2017-11-28T06:21:27.554Z,96812.38
2017-11-28T06:22:32.335Z,96819.66
2017-11-28T06:23:36.972Z,96809.27
2017-11-28T06:24:42.129Z,96802.25
2017-11-28T06:25:46.900Z,96822.39
2017-11-28T06:26:51.867Z,96819.25
2017-11-28T06:27:56.624Z,96835.55
2017-11-28T06:29:01.556Z,96828.06
2017-11-28T06:30:06.558Z,96819.50
2017-11-28T06:31:11.811Z,96820.34
2017-11-28T06:32:16.712Z,96823.09
2017-11-28T06:33:21.545Z,96823.05
2017-11-28T06:34:27.181Z,96830.25
2017-11-28T06:35:32.609Z,96820.05
2017-11-28T06:36:37.390Z,96822.65
2017-11-28T06:37:42.557Z,96820.23
2017-11-28T06:38:47.462Z,96821.92
2017-11-28T06:39:52.346Z,96829.45
2017-11-28T06:40:57.181Z,96834.89
2017-11-28T06:42:02.020Z,96835.58
2017-11-28T06:43:06.804Z,96834.02
2017-11-28T06:44:11.983Z,96838.66
2017-11-28T06:45:16.668Z,96829.55
2017-11-28T06:46:21.435Z,96823.38
2017-11-28T06:47:26.154Z,96822.39
2017-11-28T06:48:30.775Z,96834.08
2017-11-28T06:49:35.704Z,96828.72
2017-11-28T06:50:40.872Z,96833.28
2017-11-28T06:51:45.746Z,96835.80
2017-11-28T06:52:50.696Z,96835.48
2017-11-28T06:53:55.453Z,96835.44
2017-11-28T06:55:00.279Z,96831.75
2017-11-28T06:56:05.128Z,96830.00
2017-11-28T06:57:11.089Z,96837.52
2017-11-28T06:58:15.982Z,96844.24
2017-11-28T06:59:20.939Z,96854.95
2017-11-28T07:00:25.741Z,96848.92
2017-11-28T07:01:30.565Z,96851.00
2017-11-28T07:02:35.387Z,96858.96
2017-11-28T07:03:40.530Z,96870.72
2017-11-28T07:04:45.378Z,96861.45
2017-11-28T07:05:50.179Z,96857.42
2017-11-28T07:06:54.929Z,96855.78
2017-11-28T07:07:59.743Z,96859.88
2017-11-28T07:09:04.979Z,96852.83
2017-11-28T07:10:10.279Z,96851.66
2017-11-28T07:11:15.051Z,96858.56
2017-11-28T07:12:19.940Z,96857.46
2017-11-28T07:13:24.865Z,96858.04
2017-11-28T07:14:29.635Z,96856.15
2017-11-28T07:15:34.400Z,96860.17
2017-11-28T07:16:39.137Z,96859.00
2017-11-28T07:17:43.885Z,96866.89
2017-11-28T07:18:48.549Z,96859.88
2017-11-28T07:19:53.369Z,96867.40
2017-11-28T07:20:58.088Z,96861.26
2017-11-28T07:22:03.317Z,96868.53
2017-11-28T07:23:08.851Z,96870.94
2017-11-28T07:24:13.601Z,96869.77
2017-11-28T07:25:18.393Z,96875.33
2017-11-28T07:26:23.282Z,96868.48
2017-11-28T07:27:27.981Z,96863.89
2017-11-28T07:28:32.994Z,96870.80
2017-11-28T07:29:37.515Z,96870.86
2017-11-28T07:30:42.226Z,96867.98
2017-11-28T07:31:46.797Z,96868.81
2017-11-28T07:32:51.443Z,96861.91
2017-11-28T07:33:56.133Z,96859.39
2017-11-28T07:35:01.281Z,96870.06
2017-11-28T07:36:06.149Z,96860.73
2017-11-28T07:37:10.847Z,96868.16
2017-11-28T07:38:16.023Z,96874.63
2017-11-28T07:39:20.983Z,96869.11
2017-11-28T07:40:26.414Z,96879.66
2017-11-28T07:41:31.647Z,96876.88
2017-11-28T07:42:36.526Z,96876.95
2017-11-28T07:43:41.271Z,96874.91
2017-11-28T07:44:46.012Z,96889.27
2017-11-28T07:45:50.751Z,96886.09
2017-11-28T07:46:55.434Z,96886.05
2017-11-28T07:48:00.595Z,96884.44
2017-11-28T07:49:05.329Z,96883.16
2017-11-28T07:50:10.065Z,96883.16
2017-11-28T07:51:14.778Z,96871.58
2017-11-28T07:52:19.471Z,96891.45
2017-11-28T07:53:24.186Z,96890.32
2017-11-28T07:54:29.402Z,96878.53
2017-11-28T07:55:34.118Z,96889.23
2017-11-28T07:56:38.847Z,96881.41
2017-11-28T07:57:43.553Z,96881.78
2017-11-28T07:58:48.117Z,96887.16
2017-11-28T07:59:52.851Z,96894.27
2017-11-28T08:00:57.965Z,96897.09
2017-11-28T08:02:02.706Z,96892.26
2017-11-28T08:03:07.454Z,96896.65
2017-11-28T08:04:12.274Z,96902.49
2017-11-28T08:05:16.928Z,96899.72
2017-11-28T08:06:21.693Z,96892.22
2017-11-28T08:07:26.882Z,96901.18
2017-11-28T08:08:31.597Z,96906.77
2017-11-28T08:09:36.424Z,96904.24
2017-11-28T08:10:41.240Z,96906.39
2017-11-28T08:11:46.031Z,96912.56
2017-11-28T08:12:50.731Z,96905.02
2017-11-28T08:13:55.859Z,96904.61
2017-11-28T08:15:00.578Z,96906.66
2017-11-28T08:16:05.387Z,96912.77
2017-11-28T08:17:10.163Z,96907.69
2017-11-28T08:18:14.907Z,96903.77
2017-11-28T08:19:19.698Z,96905.85
2017-11-28T08:20:25.029Z,96901.28
2017-11-28T08:21:29.867Z,96895.84
2017-11-28T08:22:34.736Z,96898.05
2017-11-28T08:23:39.607Z,96896.77
2017-11-28T08:24:44.374Z,96899.00
2017-11-28T08:25:49.086Z,96895.30
2017-11-28T08:26:54.193Z,96899.87
2017-11-28T08:27:58.890Z,96898.31
2017-11-28T08:29:03.683Z,96888.50
2017-11-28T08:30:08.659Z,96890.37
2017-11-28T08:31:13.619Z,96899.36
2017-11-28T08:32:18.505Z,96899.67
2017-11-28T08:33:23.721Z,96894.01
2017-11-28T08:34:28.617Z,96899.78
2017-11-28T08:35:33.428Z,96895.45
2017-11-28T08:36:38.344Z,96902.70
2017-11-28T08:37:43.268Z,96893.20
2017-11-28T08:38:48.100Z,96899.23
2017-11-28T08:39:53.541Z,96905.80
2017-11-28T08:40:58.452Z,96905.50
2017-11-28T08:42:03.336Z,96899.86
2017-11-28T08:43:08.198Z,96904.55
2017-11-28T08:44:13.202Z,96909.79
2017-11-28T08:45:18.038Z,96909.82
2017-11-28T08:46:23.461Z,96902.41
2017-11-28T08:47:28.261Z,96896.20
2017-11-28T08:48:33.118Z,96905.41
2017-11-28T08:49:38.074Z,96911.19
2017-11-28T08:50:42.970Z,96911.78
2017-11-28T08:51:48.070Z,96908.33
2017-11-28T08:52:53.357Z,96900.87
2017-11-28T08:53:58.218Z,96902.08
2017-11-28T08:55:03.203Z,96908.11
2017-11-28T08:56:08.002Z,96900.70
2017-11-28T08:57:12.759Z,96906.10
2017-11-28T08:58:17.512Z,96902.01
2017-11-28T08:59:22.809Z,96899.61
2017-11-28T09:00:27.506Z,96902.97
2017-11-28T09:01:32.242Z,96906.10
2017-11-28T09:02:36.933Z,96913.48
2017-11-28T09:03:41.654Z,96906.50
2017-11-28T09:04:46.632Z,96909.63
2017-11-28T09:05:51.962Z,96909.73
2017-11-28T09:06:56.877Z,96908.32
2017-11-28T09:08:01.758Z,96914.56
2017-11-28T09:09:06.795Z,96920.81
2017-11-28T09:10:11.726Z,96912.48
2017-11-28T09:11:16.644Z,96913.43
2017-11-28T09:12:21.914Z,96925.02
2017-11-28T09:13:26.738Z,96915.02
2017-11-28T09:14:31.467Z,96922.47
2017-11-28T09:15:36.207Z,96920.70
2017-11-28T09:16:41.152Z,96921.00
2017-11-28T09:17:45.899Z,96918.31
2017-11-28T09:18:51.133Z,96916.70
2017-11-28T09:19:55.938Z,96917.09
2017-11-28T09:21:00.822Z,96916.84
2017-11-28T09:22:05.672Z,96921.09
2017-11-28T09:23:11.495Z,96911.40
2017-11-28T09:24:16.321Z,96909.88
2017-11-28T09:25:21.527Z,96922.02
2017-11-28T09:26:26.333Z,96921.19
2017-11-28T09:27:31.244Z,96925.59
2017-11-28T09:28:36.241Z,96928.48
2017-11-28T09:29:40.966Z,96922.27
2017-11-28T09:30:45.590Z,96915.21
2017-11-28T09:31:50.807Z,96918.13
2017-11-28T09:32:55.469Z,96916.72
2017-11-28T09:34:00.247Z,96926.80
2017-11-28T09:35:05.868Z,96931.22
2017-11-28T09:36:10.557Z,96927.67
2017-11-28T09:37:15.472Z,96928.95
2017-11-28T09:38:20.337Z,96926.73
2017-11-28T09:39:25.185Z,96922.56
2017-11-28T09:40:29.974Z,96925.28
2017-11-28T09:41:34.819Z,96922.49
2017-11-28T09:42:39.634Z,96927.36
2017-11-28T09:43:44.542Z,96928.20
2017-11-28T09:44:50.074Z,96930.78
2017-11-28T09:45:54.962Z,96928.20
2017-11-28T09:46:59.853Z,96925.28
2017-11-28T09:48:04.717Z,96922.02
2017-11-28T09:49:09.482Z,96925.24
2017-11-28T09:50:14.336Z,96921.84
2017-11-28T09:51:19.544Z,96929.50
2017-11-28T09:52:24.310Z,96918.56
2017-11-28T09:53:29.122Z,96918.88
2017-11-28T09:54:34.039Z,96924.33
2017-11-28T09:55:38.964Z,96921.95
2017-11-28T09:56:43.784Z,96935.39
2017-11-28T09:57:49.243Z,96926.27
2017-11-28T09:58:54.129Z,96924.88
2017-11-28T09:59:58.945Z,96928.36
2017-11-28T10:01:03.885Z,96917.87
2017-11-28T10:02:08.617Z,96919.52
2017-11-28T10:03:13.527Z,96916.81
2017-11-28T10:04:18.860Z,96920.81
2017-11-28T10:05:23.694Z,96913.84
2017-11-28T10:06:29.123Z,96922.91
2017-11-28T10:07:33.942Z,96919.52
2017-11-28T10:08:38.810Z,96892.45
2017-11-28T10:09:43.714Z,96919.70
2017-11-28T10:10:48.949Z,96920.47
2017-11-28T10:11:53.764Z,96911.98
2017-11-28T10:12:58.568Z,96914.98
2017-11-28T10:14:03.347Z,96906.25
2017-11-28T10:15:08.212Z,96920.52
2017-11-28T10:16:13.162Z,96918.33
2017-11-28T10:17:18.551Z,96915.16
2017-11-28T10:18:23.403Z,96908.98
2017-11-28T10:19:28.066Z,96909.20
2017-11-28T10:20:32.874Z,96903.02
2017-11-28T10:21:37.718Z,96911.48
2017-11-28T10:22:42.701Z,96905.19
2017-11-28T10:23:48.029Z,96902.62
2017-11-28T10:24:52.821Z,96900.36
2017-11-28T10:25:57.660Z,96898.86
2017-11-28T10:27:02.437Z,96899.66
2017-11-28T10:28:07.308Z,96885.38
2017-11-28T10:29:12.138Z,96898.06
2017-11-28T10:30:18.303Z,96898.35
2017-11-28T10:31:23.061Z,96893.23
2017-11-28T10:32:27.916Z,96889.66
2017-11-28T10:33:32.692Z,96897.84
2017-11-28T10:34:37.498Z,96892.17
2017-11-28T10:35:42.278Z,96886.25
2017-11-28T10:36:47.391Z,96885.27
2017-11-28T10:37:52.195Z,96887.34
2017-11-28T10:38:56.886Z,96870.35
2017-11-28T10:40:01.587Z,96883.41
2017-11-28T10:41:06.314Z,96882.70
2017-11-28T10:42:11.096Z,96890.75
2017-11-28T10:43:16.293Z,96875.61
2017-11-28T10:44:21.009Z,96894.55
2017-11-28T10:45:25.786Z,96879.34
2017-11-28T10:46:30.587Z,96877.77
2017-11-28T10:47:35.290Z,96886.18
2017-11-28T10:48:40.046Z,96877.08
2017-11-28T10:49:45.637Z,96885.30
2017-11-28T10:50:50.382Z,96880.11
2017-11-28T10:51:55.156Z,96882.67
2017-11-28T10:52:59.974Z,96880.14
2017-11-28T10:54:04.848Z,96877.98
2017-11-28T10:55:09.732Z,96881.36
2017-11-28T10:56:15.019Z,96880.58
2017-11-28T10:57:20.173Z,96874.11
2017-11-28T10:58:24.986Z,96874.95
2017-11-28T10:59:29.784Z,96883.07
2017-11-28T11:00:35.531Z,96879.38
2017-11-28T11:01:40.315Z,96877.99
2017-11-28T11:02:45.568Z,96875.25
2017-11-28T11:03:50.358Z,96868.70
2017-11-28T11:04:55.264Z,96883.70
2017-11-28T11:06:00.154Z,96873.67
2017-11-28T11:07:04.984Z,96869.62
2017-11-28T11:08:09.774Z,96879.97
2017-11-28T11:09:14.947Z,96869.95
2017-11-28T11:10:19.832Z,96875.02
2017-11-28T11:11:24.677Z,96876.02
2017-11-28T11:12:29.697Z,96876.89
2017-11-28T11:13:34.541Z,96873.31
2017-11-28T11:14:39.441Z,96879.34
2017-11-28T11:15:44.749Z,96873.16
2017-11-28T11:16:49.502Z,96882.27
2017-11-28T11:17:54.317Z,96866.11
2017-11-28T11:18:59.137Z,96872.69
2017-11-28T11:20:03.950Z,96865.45
2017-11-28T11:21:08.801Z,96877.37
2017-11-28T11:22:14.071Z,96872.44
2017-11-28T11:23:19.236Z,96871.67
2017-11-28T11:24:24.178Z,96883.58
2017-11-28T11:25:28.986Z,96873.89
2017-11-28T11:26:34.396Z,96877.11
2017-11-28T11:27:39.239Z,96879.81
2017-11-28T11:28:44.449Z,96871.19
2017-11-28T11:29:49.423Z,96873.23
2017-11-28T11:30:54.225Z,96872.95
2017-11-28T11:31:59.107Z,96870.75
2017-11-28T11:33:04.067Z,96865.59
2017-11-28T11:34:09.798Z,96865.84
2017-11-28T11:35:15.185Z,96859.97
2017-11-28T11:36:20.095Z,96865.34
2017-11-28T11:37:24.988Z,96860.66
2017-11-28T11:38:30.464Z,96865.96
2017-11-28T11:39:35.232Z,96862.23
2017-11-28T11:40:40.228Z,96862.20
2017-11-28T11:41:45.515Z,96860.47
2017-11-28T11:42:50.316Z,96861.17
2017-11-28T11:43:55.178Z,96854.38
2017-11-28T11:44:59.958Z,96851.15
2017-11-28T11:46:04.753Z,96851.69
2017-11-28T11:47:09.757Z,96846.92
2017-11-28T11:48:15.553Z,96855.02
2017-11-28T11:49:20.563Z,96858.02
2017-11-28T11:50:25.311Z,96857.61
2017-11-28T11:51:30.023Z,96865.83
2017-11-28T11:52:34.856Z,96857.03
2017-11-28T11:53:39.718Z,96866.56
2017-11-28T11:54:44.940Z,96854.39
2017-11-28T11:55:49.749Z,96853.90
2017-11-28T11:56:54.528Z,96858.70
2017-11-28T11:57:59.249Z,96857.97
2017-11-28T11:59:03.991Z,96857.38
2017-11-28T12:00:08.745Z,96852.70
2017-11-28T12:01:13.515Z,96865.06
2017-11-28T12:02:18.356Z,96855.93
2017-11-28T12:03:23.095Z,96862.59
2017-11-28T12:04:28.078Z,96860.17
2017-11-28T12:05:33.168Z,96855.31
2017-11-28T12:06:38.518Z,96838.92
2017-11-28T12:07:44.099Z,96839.44
2017-11-28T12:08:49.251Z,96831.87
2017-11-28T12:09:54.139Z,96845.14
2017-11-28T12:10:59.036Z,96841.11
2017-11-28T12:12:03.915Z,96843.42
2017-11-28T12:13:09.601Z,96841.88
2017-11-28T12:14:20.359Z,96836.69
2017-11-28T12:15:25.131Z,96839.83
2017-11-28T12:16:29.902Z,96836.66
2017-11-28T12:17:34.573Z,96849.12
2017-11-28T12:18:39.294Z,96833.98
2017-11-28T12:19:44.248Z,96834.70
2017-11-28T12:20:49.463Z,96847.70
2017-11-28T12:21:54.211Z,96855.12
2017-11-28T12:22:59.112Z,96842.75
2017-11-28T12:24:04.022Z,96846.67
2017-11-28T12:25:08.821Z,96843.52
2017-11-28T12:26:14.314Z,96835.05
2017-11-28T12:27:19.225Z,96821.88
2017-11-28T12:28:24.046Z,96826.55
2017-11-28T12:29:28.989Z,96825.71
2017-11-28T12:30:33.888Z,96833.86
2017-11-28T12:31:38.861Z,96834.99
2017-11-28T12:32:44.244Z,96836.20
2017-11-28T12:33:49.290Z,96831.77
2017-11-28T12:34:54.199Z,96837.25
2017-11-28T12:35:59.063Z,96825.09
2017-11-28T12:37:03.949Z,96830.84
2017-11-28T12:38:08.806Z,96834.53
2017-11-28T12:39:14.142Z,96826.78
2017-11-28T12:40:19.028Z,96829.16
2017-11-28T12:41:23.901Z,96823.91